sensor_id;sensor_type;location;lat;lon;timestamp;P1;durP1;ratioP1;P2;durP2;ratioP2
34359;SDS011;20624;55.870;26.506;2022-09-19T00:01:52;1.38;;;0.20;;
34359;SDS011;20624;55.870;26.506;2022-09-19T00:04:23;2.80;;;0.40;;
34359;SDS011;20624;55.870;26.506;2022-09-19T00:06:56;1.80;;;0.30;;
34359;SDS011;20624;55.870;26.506;2022-09-19T00:09:27;3.60;;;0.50;;
34359;SDS011;20624;55.870;26.506;2022-09-19T00:11:57;1.55;;;0.25;;
34359;SDS011;20624;55.870;26.506;2022-09-19T00:14:26;0.70;;;0.20;;
34359;SDS011;20624;55.870;26.506;2022-09-19T00:16:57;0.50;;;0.13;;
34359;SDS011;20624;55.870;26.506;2022-09-19T00:19:27;0.95;;;0.20;;
34359;SDS011;20624;55.870;26.506;2022-09-19T00:21:56;0.55;;;0.10;;
34359;SDS011;20624;55.870;26.506;2022-09-19T00:24:27;0.90;;;0.20;;
34359;SDS011;20624;55.870;26.506;2022-09-19T00:27:15;1.60;;;0.30;;
34359;SDS011;20624;55.870;26.506;2022-09-19T00:29:47;0.77;;;0.20;;
34359;SDS011;20624;55.870;26.506;2022-09-19T00:32:16;0.95;;;0.22;;
34359;SDS011;20624;55.870;26.506;2022-09-19T00:34:47;1.58;;;0.30;;
34359;SDS011;20624;55.870;26.506;2022-09-19T00:37:17;0.57;;;0.20;;
34359;SDS011;20624;55.870;26.506;2022-09-19T00:39:50;1.38;;;0.30;;
34359;SDS011;20624;55.870;26.506;2022-09-19T00:42:22;1.10;;;0.20;;
34359;SDS011;20624;55.870;26.506;2022-09-19T00:45:02;0.90;;;0.22;;
34359;SDS011;20624;55.870;26.506;2022-09-19T00:47:35;1.58;;;0.35;;
34359;SDS011;20624;55.870;26.506;2022-09-19T00:50:07;0.20;;;0.10;;
34359;SDS011;20624;55.870;26.506;2022-09-19T00:52:44;0.90;;;0.20;;
34359;SDS011;20624;55.870;26.506;2022-09-19T00:55:49;0.75;;;0.20;;
34359;SDS011;20624;55.870;26.506;2022-09-19T00:58:29;1.13;;;0.20;;
34359;SDS011;20624;55.870;26.506;2022-09-19T01:00:59;0.20;;;0.10;;
34359;SDS011;20624;55.870;26.506;2022-09-19T01:03:28;0.65;;;0.20;;
34359;SDS011;20624;55.870;26.506;2022-09-19T01:06:05;1.00;;;0.20;;
34359;SDS011;20624;55.870;26.506;2022-09-19T01:09:02;0.55;;;0.10;;
34359;SDS011;20624;55.870;26.506;2022-09-19T01:14:30;2.25;;;0.40;;
34359;SDS011;20624;55.870;26.506;2022-09-19T01:17:19;0.52;;;0.10;;
34359;SDS011;20624;55.870;26.506;2022-09-19T01:25:37;0.43;;;0.10;;
34359;SDS011;20624;55.870;26.506;2022-09-19T01:28:19;3.10;;;0.40;;
34359;SDS011;20624;55.870;26.506;2022-09-19T01:31:24;2.35;;;0.40;;
34359;SDS011;20624;55.870;26.506;2022-09-19T01:36:56;2.40;;;0.35;;
34359;SDS011;20624;55.870;26.506;2022-09-19T01:39:34;2.08;;;0.30;;
34359;SDS011;20624;55.870;26.506;2022-09-19T01:42:05;2.15;;;0.35;;
34359;SDS011;20624;55.870;26.506;2022-09-19T01:44:37;1.85;;;0.30;;
34359;SDS011;20624;55.870;26.506;2022-09-19T01:50:08;1.15;;;0.20;;
34359;SDS011;20624;55.870;26.506;2022-09-19T02:00:44;1.45;;;0.20;;
34359;SDS011;20624;55.870;26.506;2022-09-19T02:03:30;1.75;;;0.30;;
34359;SDS011;20624;55.870;26.506;2022-09-19T02:08:50;2.35;;;0.40;;
34359;SDS011;20624;55.870;26.506;2022-09-19T02:11:26;4.22;;;0.60;;
34359;SDS011;20624;55.870;26.506;2022-09-19T02:13:58;1.10;;;0.40;;
34359;SDS011;20624;55.870;26.506;2022-09-19T02:16:40;0.20;;;0.10;;
34359;SDS011;20624;55.870;26.506;2022-09-19T02:19:46;1.08;;;0.20;;
34359;SDS011;20624;55.870;26.506;2022-09-19T02:22:22;1.55;;;0.30;;
34359;SDS011;20624;55.870;26.506;2022-09-19T02:24:55;0.75;;;0.20;;
34359;SDS011;20624;55.870;26.506;2022-09-19T02:27:26;1.60;;;0.25;;
34359;SDS011;20624;55.870;26.506;2022-09-19T02:30:02;0.90;;;0.17;;
34359;SDS011;20624;55.870;26.506;2022-09-19T02:32:32;0.73;;;0.15;;
34359;SDS011;20624;55.870;26.506;2022-09-19T02:35:01;1.02;;;0.20;;
34359;SDS011;20624;55.870;26.506;2022-09-19T02:43:24;1.10;;;0.20;;
34359;SDS011;20624;55.870;26.506;2022-09-19T02:46:05;1.10;;;0.20;;
34359;SDS011;20624;55.870;26.506;2022-09-19T02:51:11;0.20;;;0.03;;
34359;SDS011;20624;55.870;26.506;2022-09-19T02:53:44;0.75;;;0.20;;
34359;SDS011;20624;55.870;26.506;2022-09-19T02:56:20;0.43;;;0.20;;
34359;SDS011;20624;55.870;26.506;2022-09-19T02:59:05;0.82;;;0.20;;
34359;SDS011;20624;55.870;26.506;2022-09-19T03:01:42;0.85;;;0.20;;
34359;SDS011;20624;55.870;26.506;2022-09-19T03:04:15;2.17;;;0.40;;
34359;SDS011;20624;55.870;26.506;2022-09-19T03:06:53;0.57;;;0.15;;
34359;SDS011;20624;55.870;26.506;2022-09-19T03:09:30;0.52;;;0.10;;
34359;SDS011;20624;55.870;26.506;2022-09-19T03:12:11;3.28;;;0.60;;
34359;SDS011;20624;55.870;26.506;2022-09-19T03:14:48;1.25;;;0.17;;
34359;SDS011;20624;55.870;26.506;2022-09-19T03:17:24;0.28;;;0.10;;
34359;SDS011;20624;55.870;26.506;2022-09-19T03:19:59;2.10;;;0.35;;
34359;SDS011;20624;55.870;26.506;2022-09-19T03:22:27;0.75;;;0.13;;
34359;SDS011;20624;55.870;26.506;2022-09-19T03:24:56;0.45;;;0.10;;
34359;SDS011;20624;55.870;26.506;2022-09-19T03:27:29;2.13;;;0.47;;
34359;SDS011;20624;55.870;26.506;2022-09-19T03:30:04;0.20;;;0.10;;
34359;SDS011;20624;55.870;26.506;2022-09-19T03:32:39;0.88;;;0.13;;
34359;SDS011;20624;55.870;26.506;2022-09-19T03:35:08;0.85;;;0.20;;
34359;SDS011;20624;55.870;26.506;2022-09-19T03:37:36;1.70;;;0.30;;
34359;SDS011;20624;55.870;26.506;2022-09-19T03:40:04;0.95;;;0.20;;
34359;SDS011;20624;55.870;26.506;2022-09-19T03:42:36;1.08;;;0.20;;
34359;SDS011;20624;55.870;26.506;2022-09-19T03:45:04;1.23;;;0.20;;
34359;SDS011;20624;55.870;26.506;2022-09-19T03:47:32;1.05;;;0.13;;
34359;SDS011;20624;55.870;26.506;2022-09-19T03:49:59;2.80;;;0.45;;
34359;SDS011;20624;55.870;26.506;2022-09-19T03:52:27;3.50;;;0.68;;
34359;SDS011;20624;55.870;26.506;2022-09-19T03:55:00;1.08;;;0.20;;
34359;SDS011;20624;55.870;26.506;2022-09-19T03:57:27;0.55;;;0.10;;
34359;SDS011;20624;55.870;26.506;2022-09-19T03:59:55;1.08;;;0.30;;
34359;SDS011;20624;55.870;26.506;2022-09-19T04:02:23;0.90;;;0.17;;
34359;SDS011;20624;55.870;26.506;2022-09-19T04:04:52;0.45;;;0.10;;
34359;SDS011;20624;55.870;26.506;2022-09-19T04:07:20;2.42;;;0.40;;
34359;SDS011;20624;55.870;26.506;2022-09-19T04:09:48;1.13;;;0.20;;
34359;SDS011;20624;55.870;26.506;2022-09-19T04:12:15;1.90;;;0.32;;
34359;SDS011;20624;55.870;26.506;2022-09-19T04:14:44;1.75;;;0.32;;
34359;SDS011;20624;55.870;26.506;2022-09-19T04:17:12;1.60;;;0.20;;
34359;SDS011;20624;55.870;26.506;2022-09-19T04:19:48;0.90;;;0.20;;
34359;SDS011;20624;55.870;26.506;2022-09-19T04:22:16;0.55;;;0.20;;
34359;SDS011;20624;55.870;26.506;2022-09-19T04:24:45;0.57;;;0.13;;
34359;SDS011;20624;55.870;26.506;2022-09-19T04:27:13;1.73;;;0.28;;
34359;SDS011;20624;55.870;26.506;2022-09-19T04:29:46;5.63;;;0.90;;
34359;SDS011;20624;55.870;26.506;2022-09-19T04:32:14;6.15;;;1.00;;
34359;SDS011;20624;55.870;26.506;2022-09-19T04:34:42;3.33;;;0.50;;
34359;SDS011;20624;55.870;26.506;2022-09-19T04:37:11;1.85;;;0.30;;
34359;SDS011;20624;55.870;26.506;2022-09-19T04:39:42;4.45;;;0.85;;
34359;SDS011;20624;55.870;26.506;2022-09-19T04:42:09;2.50;;;0.47;;
34359;SDS011;20624;55.870;26.506;2022-09-19T04:44:37;1.90;;;0.40;;
34359;SDS011;20624;55.870;26.506;2022-09-19T04:47:05;1.77;;;0.30;;
34359;SDS011;20624;55.870;26.506;2022-09-19T04:49:34;2.47;;;0.50;;
34359;SDS011;20624;55.870;26.506;2022-09-19T04:52:09;15.80;;;2.65;;
34359;SDS011;20624;55.870;26.506;2022-09-19T04:54:40;0.82;;;0.20;;
34359;SDS011;20624;55.870;26.506;2022-09-19T04:57:10;2.35;;;0.43;;
34359;SDS011;20624;55.870;26.506;2022-09-19T04:59:38;5.10;;;0.82;;
34359;SDS011;20624;55.870;26.506;2022-09-19T05:02:06;4.72;;;0.75;;
34359;SDS011;20624;55.870;26.506;2022-09-19T05:04:35;2.40;;;0.50;;
34359;SDS011;20624;55.870;26.506;2022-09-19T05:07:04;8.90;;;1.52;;
34359;SDS011;20624;55.870;26.506;2022-09-19T05:09:33;7.25;;;1.13;;
34359;SDS011;20624;55.870;26.506;2022-09-19T05:12:01;2.15;;;0.30;;
34359;SDS011;20624;55.870;26.506;2022-09-19T05:14:29;6.10;;;1.08;;
34359;SDS011;20624;55.870;26.506;2022-09-19T05:16:57;3.47;;;0.65;;
34359;SDS011;20624;55.870;26.506;2022-09-19T05:19:27;8.18;;;1.45;;
34359;SDS011;20624;55.870;26.506;2022-09-19T05:21:55;3.92;;;0.77;;
34359;SDS011;20624;55.870;26.506;2022-09-19T05:24:22;6.75;;;1.23;;
34359;SDS011;20624;55.870;26.506;2022-09-19T05:26:50;7.55;;;1.33;;
34359;SDS011;20624;55.870;26.506;2022-09-19T05:29:23;6.78;;;1.30;;
34359;SDS011;20624;55.870;26.506;2022-09-19T05:31:51;4.90;;;0.95;;
34359;SDS011;20624;55.870;26.506;2022-09-19T05:34:21;5.72;;;1.10;;
34359;SDS011;20624;55.870;26.506;2022-09-19T05:36:50;20.35;;;3.35;;
34359;SDS011;20624;55.870;26.506;2022-09-19T05:39:19;18.23;;;3.10;;
34359;SDS011;20624;55.870;26.506;2022-09-19T05:41:46;15.50;;;2.67;;
34359;SDS011;20624;55.870;26.506;2022-09-19T05:44:17;9.23;;;1.63;;
34359;SDS011;20624;55.870;26.506;2022-09-19T05:46:48;13.05;;;2.15;;
34359;SDS011;20624;55.870;26.506;2022-09-19T05:49:19;13.52;;;2.22;;
34359;SDS011;20624;55.870;26.506;2022-09-19T05:51:48;28.33;;;4.97;;
34359;SDS011;20624;55.870;26.506;2022-09-19T05:54:18;7.40;;;1.20;;
34359;SDS011;20624;55.870;26.506;2022-09-19T05:56:46;15.57;;;2.42;;
34359;SDS011;20624;55.870;26.506;2022-09-19T05:59:16;10.57;;;1.83;;
34359;SDS011;20624;55.870;26.506;2022-09-19T06:01:44;65.53;;;11.48;;
34359;SDS011;20624;55.870;26.506;2022-09-19T06:04:12;11.45;;;1.92;;
34359;SDS011;20624;55.870;26.506;2022-09-19T06:06:40;14.02;;;2.38;;
34359;SDS011;20624;55.870;26.506;2022-09-19T06:09:10;23.17;;;3.83;;
34359;SDS011;20624;55.870;26.506;2022-09-19T06:11:40;14.68;;;2.47;;
34359;SDS011;20624;55.870;26.506;2022-09-19T06:14:08;15.48;;;2.65;;
34359;SDS011;20624;55.870;26.506;2022-09-19T06:16:41;13.68;;;2.22;;
34359;SDS011;20624;55.870;26.506;2022-09-19T06:19:10;17.00;;;3.00;;
34359;SDS011;20624;55.870;26.506;2022-09-19T06:21:38;26.02;;;4.13;;
34359;SDS011;20624;55.870;26.506;2022-09-19T06:24:16;22.73;;;3.83;;
34359;SDS011;20624;55.870;26.506;2022-09-19T06:26:44;15.93;;;2.65;;
34359;SDS011;20624;55.870;26.506;2022-09-19T06:29:12;13.82;;;2.28;;
34359;SDS011;20624;55.870;26.506;2022-09-19T06:31:40;22.30;;;3.78;;
34359;SDS011;20624;55.870;26.506;2022-09-19T06:34:08;21.17;;;3.78;;
34359;SDS011;20624;55.870;26.506;2022-09-19T06:39:06;18.77;;;3.25;;
34359;SDS011;20624;55.870;26.506;2022-09-19T06:41:34;20.05;;;3.30;;
34359;SDS011;20624;55.870;26.506;2022-09-19T06:44:02;24.25;;;4.03;;
34359;SDS011;20624;55.870;26.506;2022-09-19T06:46:30;32.60;;;5.47;;
34359;SDS011;20624;55.870;26.506;2022-09-19T06:49:03;27.80;;;4.72;;
34359;SDS011;20624;55.870;26.506;2022-09-19T06:51:34;24.73;;;4.07;;
34359;SDS011;20624;55.870;26.506;2022-09-19T06:54:02;20.05;;;3.30;;
34359;SDS011;20624;55.870;26.506;2022-09-19T06:59:09;20.73;;;3.45;;
34359;SDS011;20624;55.870;26.506;2022-09-19T07:01:39;23.15;;;3.97;;
34359;SDS011;20624;55.870;26.506;2022-09-19T07:04:07;19.70;;;3.15;;
34359;SDS011;20624;55.870;26.506;2022-09-19T07:06:35;17.52;;;3.08;;
34359;SDS011;20624;55.870;26.506;2022-09-19T07:09:07;16.17;;;2.85;;
34359;SDS011;20624;55.870;26.506;2022-09-19T07:11:35;18.48;;;2.95;;
34359;SDS011;20624;55.870;26.506;2022-09-19T07:14:04;8.15;;;1.40;;
34359;SDS011;20624;55.870;26.506;2022-09-19T07:16:32;15.63;;;2.88;;
34359;SDS011;20624;55.870;26.506;2022-09-19T07:19:00;11.70;;;1.95;;
34359;SDS011;20624;55.870;26.506;2022-09-19T07:21:28;8.95;;;1.50;;
34359;SDS011;20624;55.870;26.506;2022-09-19T07:23:58;11.07;;;1.95;;
34359;SDS011;20624;55.870;26.506;2022-09-19T07:26:28;20.88;;;3.40;;
34359;SDS011;20624;55.870;26.506;2022-09-19T07:28:55;28.77;;;4.78;;
34359;SDS011;20624;55.870;26.506;2022-09-19T07:31:26;8.43;;;1.60;;
34359;SDS011;20624;55.870;26.506;2022-09-19T07:33:54;28.55;;;4.82;;
34359;SDS011;20624;55.870;26.506;2022-09-19T07:36:26;7.75;;;1.42;;
34359;SDS011;20624;55.870;26.506;2022-09-19T07:39:00;17.92;;;3.22;;
34359;SDS011;20624;55.870;26.506;2022-09-19T07:41:28;11.45;;;1.92;;
34359;SDS011;20624;55.870;26.506;2022-09-19T07:43:57;35.90;;;6.30;;
34359;SDS011;20624;55.870;26.506;2022-09-19T07:46:25;7.20;;;1.33;;
34359;SDS011;20624;55.870;26.506;2022-09-19T07:48:53;14.85;;;2.88;;
34359;SDS011;20624;55.870;26.506;2022-09-19T07:51:21;19.45;;;3.47;;
34359;SDS011;20624;55.870;26.506;2022-09-19T07:53:50;16.30;;;3.00;;
34359;SDS011;20624;55.870;26.506;2022-09-19T07:56:21;18.00;;;3.10;;
34359;SDS011;20624;55.870;26.506;2022-09-19T07:58:49;19.20;;;3.33;;
34359;SDS011;20624;55.870;26.506;2022-09-19T08:01:17;23.50;;;4.13;;
34359;SDS011;20624;55.870;26.506;2022-09-19T08:03:45;14.75;;;2.53;;
34359;SDS011;20624;55.870;26.506;2022-09-19T08:06:15;17.88;;;3.20;;
34359;SDS011;20624;55.870;26.506;2022-09-19T08:08:43;15.95;;;2.85;;
34359;SDS011;20624;55.870;26.506;2022-09-19T08:11:11;16.52;;;2.95;;
34359;SDS011;20624;55.870;26.506;2022-09-19T08:13:41;18.52;;;3.30;;
34359;SDS011;20624;55.870;26.506;2022-09-19T08:16:09;29.95;;;5.43;;
34359;SDS011;20624;55.870;26.506;2022-09-19T08:18:37;18.65;;;3.22;;
34359;SDS011;20624;55.870;26.506;2022-09-19T08:21:07;23.08;;;4.10;;
34359;SDS011;20624;55.870;26.506;2022-09-19T08:23:35;25.67;;;4.60;;
34359;SDS011;20624;55.870;26.506;2022-09-19T08:26:07;26.08;;;4.47;;
34359;SDS011;20624;55.870;26.506;2022-09-19T08:28:38;19.77;;;3.58;;
34359;SDS011;20624;55.870;26.506;2022-09-19T08:31:07;15.40;;;2.72;;
34359;SDS011;20624;55.870;26.506;2022-09-19T08:33:38;16.15;;;2.90;;
34359;SDS011;20624;55.870;26.506;2022-09-19T08:36:08;20.33;;;3.58;;
34359;SDS011;20624;55.870;26.506;2022-09-19T08:38:39;13.23;;;2.40;;
34359;SDS011;20624;55.870;26.506;2022-09-19T08:47:07;40.45;;;6.88;;
34359;SDS011;20624;55.870;26.506;2022-09-19T08:49:40;26.00;;;4.45;;
34359;SDS011;20624;55.870;26.506;2022-09-19T08:54:59;23.38;;;3.88;;
34359;SDS011;20624;55.870;26.506;2022-09-19T09:00:06;18.27;;;2.88;;
34359;SDS011;20624;55.870;26.506;2022-09-19T09:03:02;11.85;;;2.03;;
34359;SDS011;20624;55.870;26.506;2022-09-19T09:05:52;21.48;;;3.80;;
34359;SDS011;20624;55.870;26.506;2022-09-19T09:23:58;11.00;;;1.98;;
34359;SDS011;20624;55.870;26.506;2022-09-19T09:27:00;11.07;;;1.98;;
34359;SDS011;20624;55.870;26.506;2022-09-19T09:29:35;16.38;;;2.78;;
34359;SDS011;20624;55.870;26.506;2022-09-19T09:32:16;29.77;;;5.05;;
34359;SDS011;20624;55.870;26.506;2022-09-19T09:35:01;26.13;;;4.32;;
34359;SDS011;20624;55.870;26.506;2022-09-19T09:37:37;25.55;;;4.40;;
34359;SDS011;20624;55.870;26.506;2022-09-19T09:40:13;17.88;;;3.15;;
34359;SDS011;20624;55.870;26.506;2022-09-19T09:43:10;14.35;;;2.45;;
34359;SDS011;20624;55.870;26.506;2022-09-19T09:45:46;20.98;;;3.75;;
34359;SDS011;20624;55.870;26.506;2022-09-19T09:56:59;8.13;;;1.40;;
34359;SDS011;20624;55.870;26.506;2022-09-19T09:59:44;26.38;;;4.78;;
34359;SDS011;20624;55.870;26.506;2022-09-19T10:05:42;15.85;;;2.90;;
34359;SDS011;20624;55.870;26.506;2022-09-19T10:08:21;19.92;;;3.78;;
34359;SDS011;20624;55.870;26.506;2022-09-19T10:11:11;13.27;;;2.40;;
34359;SDS011;20624;55.870;26.506;2022-09-19T10:14:03;18.58;;;3.38;;
34359;SDS011;20624;55.870;26.506;2022-09-19T10:16:35;18.30;;;3.38;;
34359;SDS011;20624;55.870;26.506;2022-09-19T10:19:14;10.52;;;1.98;;
34359;SDS011;20624;55.870;26.506;2022-09-19T10:22:11;16.83;;;3.25;;
34359;SDS011;20624;55.870;26.506;2022-09-19T10:24:45;21.25;;;3.60;;
34359;SDS011;20624;55.870;26.506;2022-09-19T10:27:26;17.20;;;3.42;;
34359;SDS011;20624;55.870;26.506;2022-09-19T10:32:57;16.45;;;3.15;;
34359;SDS011;20624;55.870;26.506;2022-09-19T10:43:31;14.35;;;2.53;;
34359;SDS011;20624;55.870;26.506;2022-09-19T10:46:04;23.45;;;4.65;;
34359;SDS011;20624;55.870;26.506;2022-09-19T10:48:34;13.68;;;2.67;;
34359;SDS011;20624;55.870;26.506;2022-09-19T10:51:09;11.02;;;2.10;;
34359;SDS011;20624;55.870;26.506;2022-09-19T10:53:41;14.07;;;2.63;;
34359;SDS011;20624;55.870;26.506;2022-09-19T10:56:28;15.93;;;2.97;;
34359;SDS011;20624;55.870;26.506;2022-09-19T10:59:17;21.02;;;3.78;;
34359;SDS011;20624;55.870;26.506;2022-09-19T11:04:36;16.42;;;2.90;;
34359;SDS011;20624;55.870;26.506;2022-09-19T11:07:15;12.05;;;2.05;;
34359;SDS011;20624;55.870;26.506;2022-09-19T11:09:43;16.42;;;2.90;;
34359;SDS011;20624;55.870;26.506;2022-09-19T11:12:12;48.05;;;5.97;;
34359;SDS011;20624;55.870;26.506;2022-09-19T11:17:36;34.33;;;4.45;;
34359;SDS011;20624;55.870;26.506;2022-09-19T11:20:40;44.55;;;5.65;;
34359;SDS011;20624;55.870;26.506;2022-09-19T11:26:08;37.88;;;5.07;;
34359;SDS011;20624;55.870;26.506;2022-09-19T11:29:01;40.90;;;5.32;;
34359;SDS011;20624;55.870;26.506;2022-09-19T11:34:39;38.17;;;4.82;;
34359;SDS011;20624;55.870;26.506;2022-09-19T11:43:06;9.43;;;1.83;;
34359;SDS011;20624;55.870;26.506;2022-09-19T11:48:32;8.45;;;1.58;;
34359;SDS011;20624;55.870;26.506;2022-09-19T11:56:47;9.23;;;1.73;;
34359;SDS011;20624;55.870;26.506;2022-09-19T12:13:56;17.73;;;3.13;;
34359;SDS011;20624;55.870;26.506;2022-09-19T12:16:34;16.02;;;2.95;;
34359;SDS011;20624;55.870;26.506;2022-09-19T12:19:21;22.85;;;3.90;;
34359;SDS011;20624;55.870;26.506;2022-09-19T12:24:25;8.35;;;1.60;;
34359;SDS011;20624;55.870;26.506;2022-09-19T12:27:32;23.35;;;3.83;;
34359;SDS011;20624;55.870;26.506;2022-09-19T12:32:49;23.00;;;4.22;;
34359;SDS011;20624;55.870;26.506;2022-09-19T12:35:44;22.90;;;4.30;;
34359;SDS011;20624;55.870;26.506;2022-09-19T12:41:16;19.48;;;3.33;;
34359;SDS011;20624;55.870;26.506;2022-09-19T12:44:33;18.27;;;3.28;;
34359;SDS011;20624;55.870;26.506;2022-09-19T12:46:48;13.32;;;2.40;;
34359;SDS011;20624;55.870;26.506;2022-09-19T12:52:11;20.13;;;3.50;;
34359;SDS011;20624;55.870;26.506;2022-09-19T12:54:58;19.23;;;3.65;;
34359;SDS011;20624;55.870;26.506;2022-09-19T13:00:03;12.77;;;2.38;;
34359;SDS011;20624;55.870;26.506;2022-09-19T13:02:34;12.90;;;2.40;;
34359;SDS011;20624;55.870;26.506;2022-09-19T13:08:01;11.13;;;2.10;;
34359;SDS011;20624;55.870;26.506;2022-09-19T13:10:35;8.10;;;1.40;;
34359;SDS011;20624;55.870;26.506;2022-09-19T13:13:33;15.65;;;2.55;;
34359;SDS011;20624;55.870;26.506;2022-09-19T13:15:59;44.50;;;5.82;;
34359;SDS011;20624;55.870;26.506;2022-09-19T13:18:33;29.45;;;3.90;;
34359;SDS011;20624;55.870;26.506;2022-09-19T13:21:20;15.10;;;2.55;;
34359;SDS011;20624;55.870;26.506;2022-09-19T13:24:25;33.55;;;5.93;;
34359;SDS011;20624;55.870;26.506;2022-09-19T13:26:55;18.60;;;3.00;;
34359;SDS011;20624;55.870;26.506;2022-09-19T13:31:58;20.42;;;3.80;;
34359;SDS011;20624;55.870;26.506;2022-09-19T13:40:05;6.68;;;1.27;;
34359;SDS011;20624;55.870;26.506;2022-09-19T13:51:06;36.53;;;4.70;;
34359;SDS011;20624;55.870;26.506;2022-09-19T13:56:03;34.22;;;4.38;;
34359;SDS011;20624;55.870;26.506;2022-09-19T13:59:09;24.80;;;3.30;;
34359;SDS011;20624;55.870;26.506;2022-09-19T14:01:52;17.40;;;2.30;;
34359;SDS011;20624;55.870;26.506;2022-09-19T14:04:42;74.00;;;9.45;;
34359;SDS011;20624;55.870;26.506;2022-09-19T14:07:25;21.95;;;3.13;;
34359;SDS011;20624;55.870;26.506;2022-09-19T14:10:18;5.55;;;1.00;;
34359;SDS011;20624;55.870;26.506;2022-09-19T14:23:16;3.90;;;0.80;;
34359;SDS011;20624;55.870;26.506;2022-09-19T14:25:57;5.20;;;1.00;;
34359;SDS011;20624;55.870;26.506;2022-09-19T14:41:51;4.18;;;0.85;;
34359;SDS011;20624;55.870;26.506;2022-09-19T14:47:18;3.55;;;0.57;;
34359;SDS011;20624;55.870;26.506;2022-09-19T14:49:56;5.72;;;0.98;;
34359;SDS011;20624;55.870;26.506;2022-09-19T14:52:25;5.75;;;1.02;;
34359;SDS011;20624;55.870;26.506;2022-09-19T14:54:58;5.78;;;1.02;;
34359;SDS011;20624;55.870;26.506;2022-09-19T14:57:26;6.03;;;1.00;;
34359;SDS011;20624;55.870;26.506;2022-09-19T15:00:11;7.63;;;1.20;;
34359;SDS011;20624;55.870;26.506;2022-09-19T15:02:46;3.47;;;0.70;;
34359;SDS011;20624;55.870;26.506;2022-09-19T15:05:19;7.72;;;1.40;;
34359;SDS011;20624;55.870;26.506;2022-09-19T15:07:51;5.95;;;0.95;;
34359;SDS011;20624;55.870;26.506;2022-09-19T15:12:57;9.45;;;1.50;;
34359;SDS011;20624;55.870;26.506;2022-09-19T15:15:51;4.88;;;0.90;;
34359;SDS011;20624;55.870;26.506;2022-09-19T15:18:38;10.27;;;1.80;;
34359;SDS011;20624;55.870;26.506;2022-09-19T15:23:44;6.65;;;1.10;;
34359;SDS011;20624;55.870;26.506;2022-09-19T15:26:19;12.00;;;1.95;;
34359;SDS011;20624;55.870;26.506;2022-09-19T15:29:03;3.33;;;0.60;;
34359;SDS011;20624;55.870;26.506;2022-09-19T15:31:42;10.23;;;1.70;;
34359;SDS011;20624;55.870;26.506;2022-09-19T15:34:15;8.63;;;1.48;;
34359;SDS011;20624;55.870;26.506;2022-09-19T15:36:44;29.98;;;3.70;;
34359;SDS011;20624;55.870;26.506;2022-09-19T15:39:13;13.55;;;1.80;;
34359;SDS011;20624;55.870;26.506;2022-09-19T15:41:41;17.33;;;2.25;;
34359;SDS011;20624;55.870;26.506;2022-09-19T15:44:30;7.88;;;1.02;;
34359;SDS011;20624;55.870;26.506;2022-09-19T15:47:03;7.53;;;1.30;;
34359;SDS011;20624;55.870;26.506;2022-09-19T15:49:33;8.10;;;1.42;;
34359;SDS011;20624;55.870;26.506;2022-09-19T15:52:07;4.30;;;0.82;;
34359;SDS011;20624;55.870;26.506;2022-09-19T15:54:37;3.10;;;0.50;;
34359;SDS011;20624;55.870;26.506;2022-09-19T15:57:19;2.92;;;0.43;;
34359;SDS011;20624;55.870;26.506;2022-09-19T16:00:18;4.68;;;0.80;;
34359;SDS011;20624;55.870;26.506;2022-09-19T16:02:48;5.57;;;1.00;;
34359;SDS011;20624;55.870;26.506;2022-09-19T16:05:19;5.25;;;0.95;;
34359;SDS011;20624;55.870;26.506;2022-09-19T16:07:50;11.93;;;1.13;;
34359;SDS011;20624;55.870;26.506;2022-09-19T16:10:43;3.65;;;0.75;;
34359;SDS011;20624;55.870;26.506;2022-09-19T16:13:39;11.43;;;1.45;;
34359;SDS011;20624;55.870;26.506;2022-09-19T16:19:07;2.22;;;0.40;;
34359;SDS011;20624;55.870;26.506;2022-09-19T16:22:05;4.60;;;0.82;;
34359;SDS011;20624;55.870;26.506;2022-09-19T16:27:38;7.40;;;1.45;;
34359;SDS011;20624;55.870;26.506;2022-09-19T16:30:08;5.07;;;0.85;;
34359;SDS011;20624;55.870;26.506;2022-09-19T16:32:40;4.82;;;0.88;;
34359;SDS011;20624;55.870;26.506;2022-09-19T16:35:18;2.72;;;0.50;;
34359;SDS011;20624;55.870;26.506;2022-09-19T16:37:46;3.53;;;0.60;;
34359;SDS011;20624;55.870;26.506;2022-09-19T16:45:40;3.00;;;0.60;;
34359;SDS011;20624;55.870;26.506;2022-09-19T16:48:08;4.90;;;0.88;;
34359;SDS011;20624;55.870;26.506;2022-09-19T16:50:38;2.58;;;0.50;;
34359;SDS011;20624;55.870;26.506;2022-09-19T16:53:14;5.47;;;1.08;;
34359;SDS011;20624;55.870;26.506;2022-09-19T16:55:43;9.80;;;1.63;;
34359;SDS011;20624;55.870;26.506;2022-09-19T16:58:17;3.03;;;0.63;;
34359;SDS011;20624;55.870;26.506;2022-09-19T17:00:46;4.10;;;0.68;;
34359;SDS011;20624;55.870;26.506;2022-09-19T17:03:16;3.17;;;0.50;;
34359;SDS011;20624;55.870;26.506;2022-09-19T17:05:44;1.52;;;0.30;;
34359;SDS011;20624;55.870;26.506;2022-09-19T17:08:12;2.75;;;0.40;;
34359;SDS011;20624;55.870;26.506;2022-09-19T17:10:40;3.38;;;0.57;;
34359;SDS011;20624;55.870;26.506;2022-09-19T17:13:11;1.92;;;0.30;;
34359;SDS011;20624;55.870;26.506;2022-09-19T17:16:02;2.22;;;0.50;;
34359;SDS011;20624;55.870;26.506;2022-09-19T17:18:32;0.98;;;0.20;;
34359;SDS011;20624;55.870;26.506;2022-09-19T17:21:01;8.15;;;1.38;;
34359;SDS011;20624;55.870;26.506;2022-09-19T17:23:29;1.30;;;0.40;;
34359;SDS011;20624;55.870;26.506;2022-09-19T17:25:58;3.22;;;0.60;;
34359;SDS011;20624;55.870;26.506;2022-09-19T17:28:27;7.22;;;1.20;;
34359;SDS011;20624;55.870;26.506;2022-09-19T17:30:56;0.50;;;0.10;;
34359;SDS011;20624;55.870;26.506;2022-09-19T17:33:26;4.32;;;0.68;;
34359;SDS011;20624;55.870;26.506;2022-09-19T17:35:55;5.72;;;0.80;;
34359;SDS011;20624;55.870;26.506;2022-09-19T17:38:28;1.50;;;0.32;;
34359;SDS011;20624;55.870;26.506;2022-09-19T17:40:56;2.10;;;0.30;;
34359;SDS011;20624;55.870;26.506;2022-09-19T17:43:25;1.10;;;0.30;;
34359;SDS011;20624;55.870;26.506;2022-09-19T17:46:00;5.13;;;0.82;;
34359;SDS011;20624;55.870;26.506;2022-09-19T17:48:38;2.10;;;0.40;;
34359;SDS011;20624;55.870;26.506;2022-09-19T17:51:11;3.97;;;0.70;;
34359;SDS011;20624;55.870;26.506;2022-09-19T17:53:43;3.17;;;0.55;;
34359;SDS011;20624;55.870;26.506;2022-09-19T17:56:18;8.00;;;1.35;;
34359;SDS011;20624;55.870;26.506;2022-09-19T17:58:54;2.35;;;0.35;;
34359;SDS011;20624;55.870;26.506;2022-09-19T18:01:25;2.17;;;0.35;;
34359;SDS011;20624;55.870;26.506;2022-09-19T18:04:11;2.58;;;0.50;;
34359;SDS011;20624;55.870;26.506;2022-09-19T18:06:40;4.78;;;0.65;;
34359;SDS011;20624;55.870;26.506;2022-09-19T18:09:09;0.80;;;0.17;;
34359;SDS011;20624;55.870;26.506;2022-09-19T18:11:40;2.35;;;0.40;;
34359;SDS011;20624;55.870;26.506;2022-09-19T18:14:08;1.20;;;0.30;;
34359;SDS011;20624;55.870;26.506;2022-09-19T18:16:42;0.88;;;0.20;;
34359;SDS011;20624;55.870;26.506;2022-09-19T18:19:10;1.17;;;0.22;;
34359;SDS011;20624;55.870;26.506;2022-09-19T18:21:38;1.77;;;0.40;;
34359;SDS011;20624;55.870;26.506;2022-09-19T18:24:07;0.90;;;0.20;;
34359;SDS011;20624;55.870;26.506;2022-09-19T18:26:37;2.58;;;0.25;;
34359;SDS011;20624;55.870;26.506;2022-09-19T18:29:07;1.73;;;0.30;;
34359;SDS011;20624;55.870;26.506;2022-09-19T18:31:37;0.65;;;0.15;;
34359;SDS011;20624;55.870;26.506;2022-09-19T18:34:06;1.40;;;0.30;;
34359;SDS011;20624;55.870;26.506;2022-09-19T18:36:34;0.70;;;0.20;;